sensor_id;sensor_type;location;lat;lon;timestamp;temperature;humidity
47921;DHT22;33686;48.770;9.186;2023-09-08T00:00:31;17.80;99.90
47921;DHT22;33686;48.770;9.186;2023-09-08T00:02:56;17.90;99.90
47921;DHT22;33686;48.770;9.186;2023-09-08T00:05:22;17.90;99.90
47921;DHT22;33686;48.770;9.186;2023-09-08T00:07:47;17.90;99.90
47921;DHT22;33686;48.770;9.186;2023-09-08T00:10:13;17.90;99.90
47921;DHT22;33686;48.770;9.186;2023-09-08T00:12:38;17.80;99.90
47921;DHT22;33686;48.770;9.186;2023-09-08T00:15:05;17.80;99.90
47921;DHT22;33686;48.770;9.186;2023-09-08T00:17:31;17.80;99.90
47921;DHT22;33686;48.770;9.186;2023-09-08T00:19:57;17.70;99.90
47921;DHT22;33686;48.770;9.186;2023-09-08T00:22:22;17.60;99.90
47921;DHT22;33686;48.770;9.186;2023-09-08T00:24:48;17.60;99.90
47921;DHT22;33686;48.770;9.186;2023-09-08T00:27:13;17.50;99.90
47921;DHT22;33686;48.770;9.186;2023-09-08T00:29:39;17.50;99.90
47921;DHT22;33686;48.770;9.186;2023-09-08T00:32:05;17.40;99.90
47921;DHT22;33686;48.770;9.186;2023-09-08T00:34:30;17.50;99.90
47921;DHT22;33686;48.770;9.186;2023-09-08T00:36:56;17.40;99.90
47921;DHT22;33686;48.770;9.186;2023-09-08T00:39:21;17.30;99.90
47921;DHT22;33686;48.770;9.186;2023-09-08T00:41:47;17.50;99.90
47921;DHT22;33686;48.770;9.186;2023-09-08T00:44:13;17.50;99.90
47921;DHT22;33686;48.770;9.186;2023-09-08T00:46:39;17.50;99.90
47921;DHT22;33686;48.770;9.186;2023-09-08T00:49:05;17.50;99.90
47921;DHT22;33686;48.770;9.186;2023-09-08T00:51:31;17.40;99.90
47921;DHT22;33686;48.770;9.186;2023-09-08T00:53:56;17.40;99.90
47921;DHT22;33686;48.770;9.186;2023-09-08T00:56:23;17.40;99.90
47921;DHT22;33686;48.770;9.186;2023-09-08T00:58:48;17.40;99.90
47921;DHT22;33686;48.770;9.186;2023-09-08T01:01:15;17.30;99.90
47921;DHT22;33686;48.770;9.186;2023-09-08T01:03:42;17.40;99.90
47921;DHT22;33686;48.770;9.186;2023-09-08T01:06:08;17.40;99.90
47921;DHT22;33686;48.770;9.186;2023-09-08T01:08:35;17.40;99.90
47921;DHT22;33686;48.770;9.186;2023-09-08T01:11:02;17.40;99.90
47921;DHT22;33686;48.770;9.186;2023-09-08T01:13:28;17.30;99.90
47921;DHT22;33686;48.770;9.186;2023-09-08T01:15:53;17.20;99.90
47921;DHT22;33686;48.770;9.186;2023-09-08T01:18:19;17.20;99.90
47921;DHT22;33686;48.770;9.186;2023-09-08T01:20:55;17.20;99.90
47921;DHT22;33686;48.770;9.186;2023-09-08T01:23:35;17.20;99.90
47921;DHT22;33686;48.770;9.186;2023-09-08T01:26:04;17.20;99.90
47921;DHT22;33686;48.770;9.186;2023-09-08T01:28:31;17.20;99.90
47921;DHT22;33686;48.770;9.186;2023-09-08T01:30:57;17.10;99.90
47921;DHT22;33686;48.770;9.186;2023-09-08T01:33:24;17.00;99.90
47921;DHT22;33686;48.770;9.186;2023-09-08T01:35:49;17.00;99.90
47921;DHT22;33686;48.770;9.186;2023-09-08T01:38:15;17.00;99.90
47921;DHT22;33686;48.770;9.186;2023-09-08T01:40:41;17.10;99.90
47921;DHT22;33686;48.770;9.186;2023-09-08T01:43:07;17.20;99.90
47921;DHT22;33686;48.770;9.186;2023-09-08T01:45:32;17.10;99.90
47921;DHT22;33686;48.770;9.186;2023-09-08T01:47:58;17.20;99.90
47921;DHT22;33686;48.770;9.186;2023-09-08T01:50:25;16.90;99.90
47921;DHT22;33686;48.770;9.186;2023-09-08T01:52:51;16.90;99.90
47921;DHT22;33686;48.770;9.186;2023-09-08T01:55:16;16.80;99.90
47921;DHT22;33686;48.770;9.186;2023-09-08T01:57:42;16.70;99.90
47921;DHT22;33686;48.770;9.186;2023-09-08T02:00:08;16.70;99.90
47921;DHT22;33686;48.770;9.186;2023-09-08T02:02:38;16.60;99.90
47921;DHT22;33686;48.770;9.186;2023-09-08T02:05:03;16.50;99.90
47921;DHT22;33686;48.770;9.186;2023-09-08T02:07:29;16.50;99.90
47921;DHT22;33686;48.770;9.186;2023-09-08T02:09:55;16.50;99.90
47921;DHT22;33686;48.770;9.186;2023-09-08T02:12:23;16.50;99.90
47921;DHT22;33686;48.770;9.186;2023-09-08T02:14:49;16.50;99.90
47921;DHT22;33686;48.770;9.186;2023-09-08T02:17:14;16.50;99.90
47921;DHT22;33686;48.770;9.186;2023-09-08T02:19:40;16.40;99.90
47921;DHT22;33686;48.770;9.186;2023-09-08T02:22:05;16.40;99.90
47921;DHT22;33686;48.770;9.186;2023-09-08T02:24:31;16.40;99.90
47921;DHT22;33686;48.770;9.186;2023-09-08T02:26:57;16.50;99.90
47921;DHT22;33686;48.770;9.186;2023-09-08T02:29:23;16.60;99.90
47921;DHT22;33686;48.770;9.186;2023-09-08T02:31:49;16.70;99.90
47921;DHT22;33686;48.770;9.186;2023-09-08T02:34:14;16.70;99.90
47921;DHT22;33686;48.770;9.186;2023-09-08T02:36:40;16.70;99.90
47921;DHT22;33686;48.770;9.186;2023-09-08T02:39:06;16.70;99.90
47921;DHT22;33686;48.770;9.186;2023-09-08T02:41:33;16.70;99.90
47921;DHT22;33686;48.770;9.186;2023-09-08T02:44:00;16.60;99.90
47921;DHT22;33686;48.770;9.186;2023-09-08T02:46:25;16.60;99.90
47921;DHT22;33686;48.770;9.186;2023-09-08T02:48:52;16.50;99.90
47921;DHT22;33686;48.770;9.186;2023-09-08T02:51:18;16.50;99.90
47921;DHT22;33686;48.770;9.186;2023-09-08T02:53:43;16.50;99.90
47921;DHT22;33686;48.770;9.186;2023-09-08T02:56:09;16.60;99.90
47921;DHT22;33686;48.770;9.186;2023-09-08T02:58:35;16.40;99.90
47921;DHT22;33686;48.770;9.186;2023-09-08T03:01:10;16.40;99.90
47921;DHT22;33686;48.770;9.186;2023-09-08T03:03:37;16.40;99.90
47921;DHT22;33686;48.770;9.186;2023-09-08T03:06:03;16.30;99.90
47921;DHT22;33686;48.770;9.186;2023-09-08T03:08:29;16.30;99.90
47921;DHT22;33686;48.770;9.186;2023-09-08T03:10:56;16.30;99.90
47921;DHT22;33686;48.770;9.186;2023-09-08T03:13:23;16.30;99.90
47921;DHT22;33686;48.770;9.186;2023-09-08T03:15:48;16.20;99.90
47921;DHT22;33686;48.770;9.186;2023-09-08T03:18:14;16.10;99.90
47921;DHT22;33686;48.770;9.186;2023-09-08T03:20:40;16.20;99.90
47921;DHT22;33686;48.770;9.186;2023-09-08T03:23:05;16.20;99.90
47921;DHT22;33686;48.770;9.186;2023-09-08T03:25:31;16.20;99.90
47921;DHT22;33686;48.770;9.186;2023-09-08T03:27:56;16.30;99.90
47921;DHT22;33686;48.770;9.186;2023-09-08T03:30:22;16.40;99.90
47921;DHT22;33686;48.770;9.186;2023-09-08T03:32:48;16.30;99.90
47921;DHT22;33686;48.770;9.186;2023-09-08T03:35:13;16.30;99.90
47921;DHT22;33686;48.770;9.186;2023-09-08T03:37:41;16.10;99.90
47921;DHT22;33686;48.770;9.186;2023-09-08T03:40:07;16.20;99.90
47921;DHT22;33686;48.770;9.186;2023-09-08T03:42:33;16.20;99.90
47921;DHT22;33686;48.770;9.186;2023-09-08T03:45:00;16.30;99.90
47921;DHT22;33686;48.770;9.186;2023-09-08T03:47:26;16.30;99.90
47921;DHT22;33686;48.770;9.186;2023-09-08T03:49:51;16.20;99.90
47921;DHT22;33686;48.770;9.186;2023-09-08T03:52:17;16.10;99.90
47921;DHT22;33686;48.770;9.186;2023-09-08T03:54:43;16.20;99.90
47921;DHT22;33686;48.770;9.186;2023-09-08T03:57:09;16.10;99.90
47921;DHT22;33686;48.770;9.186;2023-09-08T03:59:34;16.20;99.90
47921;DHT22;33686;48.770;9.186;2023-09-08T04:02:00;16.20;99.90
47921;DHT22;33686;48.770;9.186;2023-09-08T04:04:26;16.20;99.90
47921;DHT22;33686;48.770;9.186;2023-09-08T04:06:52;16.20;99.90
47921;DHT22;33686;48.770;9.186;2023-09-08T04:09:18;16.30;99.90
47921;DHT22;33686;48.770;9.186;2023-09-08T04:11:43;16.30;99.90
47921;DHT22;33686;48.770;9.186;2023-09-08T04:14:09;16.20;99.90
47921;DHT22;33686;48.770;9.186;2023-09-08T04:16:35;16.20;99.90
47921;DHT22;33686;48.770;9.186;2023-09-08T04:19:00;16.20;99.90
47921;DHT22;33686;48.770;9.186;2023-09-08T04:21:26;16.00;99.90
47921;DHT22;33686;48.770;9.186;2023-09-08T04:23:52;16.00;99.90
47921;DHT22;33686;48.770;9.186;2023-09-08T04:26:17;16.00;99.90
47921;DHT22;33686;48.770;9.186;2023-09-08T04:28:43;16.00;99.90
47921;DHT22;33686;48.770;9.186;2023-09-08T04:31:08;16.00;99.90
47921;DHT22;33686;48.770;9.186;2023-09-08T04:33:36;16.20;99.90
47921;DHT22;33686;48.770;9.186;2023-09-08T04:36:01;16.20;99.90
47921;DHT22;33686;48.770;9.186;2023-09-08T04:38:27;16.20;99.90
47921;DHT22;33686;48.770;9.186;2023-09-08T04:40:52;16.20;99.90
47921;DHT22;33686;48.770;9.186;2023-09-08T04:43:18;16.10;99.90
47921;DHT22;33686;48.770;9.186;2023-09-08T04:45:44;16.10;99.90
47921;DHT22;33686;48.770;9.186;2023-09-08T04:48:10;15.90;99.90
47921;DHT22;33686;48.770;9.186;2023-09-08T04:50:36;15.90;99.90
47921;DHT22;33686;48.770;9.186;2023-09-08T04:53:02;15.80;99.90
47921;DHT22;33686;48.770;9.186;2023-09-08T04:55:28;15.80;99.90
47921;DHT22;33686;48.770;9.186;2023-09-08T04:57:53;15.80;99.90
47921;DHT22;33686;48.770;9.186;2023-09-08T05:00:19;15.80;99.90
47921;DHT22;33686;48.770;9.186;2023-09-08T05:02:45;15.80;99.90
47921;DHT22;33686;48.770;9.186;2023-09-08T05:05:11;15.90;99.90
47921;DHT22;33686;48.770;9.186;2023-09-08T05:07:36;15.90;99.90
47921;DHT22;33686;48.770;9.186;2023-09-08T05:10:02;15.90;99.90
47921;DHT22;33686;48.770;9.186;2023-09-08T05:12:32;15.90;99.90
47921;DHT22;33686;48.770;9.186;2023-09-08T05:14:58;15.90;99.90
47921;DHT22;33686;48.770;9.186;2023-09-08T05:17:32;15.90;99.90
47921;DHT22;33686;48.770;9.186;2023-09-08T05:19:57;15.90;99.90
47921;DHT22;33686;48.770;9.186;2023-09-08T05:22:23;15.90;99.90
47921;DHT22;33686;48.770;9.186;2023-09-08T05:24:49;16.10;99.90
47921;DHT22;33686;48.770;9.186;2023-09-08T05:27:14;16.10;99.90
47921;DHT22;33686;48.770;9.186;2023-09-08T05:29:40;16.00;99.90
47921;DHT22;33686;48.770;9.186;2023-09-08T05:32:06;16.00;99.90
47921;DHT22;33686;48.770;9.186;2023-09-08T05:34:32;16.00;99.90
47921;DHT22;33686;48.770;9.186;2023-09-08T05:36:58;16.20;99.90
47921;DHT22;33686;48.770;9.186;2023-09-08T05:39:23;16.10;99.90
47921;DHT22;33686;48.770;9.186;2023-09-08T05:41:49;16.10;99.90
47921;DHT22;33686;48.770;9.186;2023-09-08T05:44:14;16.10;99.90
47921;DHT22;33686;48.770;9.186;2023-09-08T05:46:40;16.30;99.90
47921;DHT22;33686;48.770;9.186;2023-09-08T05:49:07;16.30;99.90
47921;DHT22;33686;48.770;9.186;2023-09-08T05:51:32;16.30;99.90
47921;DHT22;33686;48.770;9.186;2023-09-08T05:53:59;16.20;99.90
47921;DHT22;33686;48.770;9.186;2023-09-08T05:56:29;16.30;99.90
47921;DHT22;33686;48.770;9.186;2023-09-08T05:58:55;16.30;99.90
47921;DHT22;33686;48.770;9.186;2023-09-08T06:01:20;16.50;99.90
47921;DHT22;33686;48.770;9.186;2023-09-08T06:03:46;16.60;99.90
47921;DHT22;33686;48.770;9.186;2023-09-08T06:06:13;16.70;99.90
47921;DHT22;33686;48.770;9.186;2023-09-08T06:08:38;18.30;99.90
47921;DHT22;33686;48.770;9.186;2023-09-08T06:11:04;19.80;99.90
47921;DHT22;33686;48.770;9.186;2023-09-08T06:13:31;21.10;99.90
47921;DHT22;33686;48.770;9.186;2023-09-08T06:15:57;21.70;99.90
47921;DHT22;33686;48.770;9.186;2023-09-08T06:18:22;22.30;99.90
47921;DHT22;33686;48.770;9.186;2023-09-08T06:20:48;23.00;99.90
47921;DHT22;33686;48.770;9.186;2023-09-08T06:23:14;23.40;99.90
47921;DHT22;33686;48.770;9.186;2023-09-08T06:25:40;23.50;99.90
47921;DHT22;33686;48.770;9.186;2023-09-08T06:28:06;24.20;99.90
47921;DHT22;33686;48.770;9.186;2023-09-08T06:30:32;24.00;99.90
47921;DHT22;33686;48.770;9.186;2023-09-08T06:32:58;24.50;99.90
47921;DHT22;33686;48.770;9.186;2023-09-08T06:35:25;25.00;99.90
47921;DHT22;33686;48.770;9.186;2023-09-08T06:37:51;25.10;99.90
47921;DHT22;33686;48.770;9.186;2023-09-08T06:40:17;25.90;99.90
47921;DHT22;33686;48.770;9.186;2023-09-08T06:42:42;26.50;99.90
47921;DHT22;33686;48.770;9.186;2023-09-08T06:45:15;26.20;99.90
47921;DHT22;33686;48.770;9.186;2023-09-08T06:47:42;26.90;99.90
47921;DHT22;33686;48.770;9.186;2023-09-08T06:50:07;26.60;99.90
47921;DHT22;33686;48.770;9.186;2023-09-08T06:52:33;26.90;99.90
47921;DHT22;33686;48.770;9.186;2023-09-08T06:54:58;27.30;99.90
47921;DHT22;33686;48.770;9.186;2023-09-08T06:57:24;27.20;99.90
47921;DHT22;33686;48.770;9.186;2023-09-08T06:59:50;27.00;99.90
47921;DHT22;33686;48.770;9.186;2023-09-08T07:02:15;27.20;99.90
47921;DHT22;33686;48.770;9.186;2023-09-08T07:04:41;27.30;99.90
47921;DHT22;33686;48.770;9.186;2023-09-08T07:07:07;26.90;99.90
47921;DHT22;33686;48.770;9.186;2023-09-08T07:09:35;27.20;99.90
47921;DHT22;33686;48.770;9.186;2023-09-08T07:12:05;27.60;99.90
47921;DHT22;33686;48.770;9.186;2023-09-08T07:14:31;27.30;99.90
47921;DHT22;33686;48.770;9.186;2023-09-08T07:16:57;27.50;99.90
47921;DHT22;33686;48.770;9.186;2023-09-08T07:19:23;28.10;99.90
47921;DHT22;33686;48.770;9.186;2023-09-08T07:21:49;27.10;99.90
47921;DHT22;33686;48.770;9.186;2023-09-08T07:24:15;26.90;99.90
47921;DHT22;33686;48.770;9.186;2023-09-08T07:26:40;26.70;99.90
47921;DHT22;33686;48.770;9.186;2023-09-08T07:29:06;27.80;99.90
47921;DHT22;33686;48.770;9.186;2023-09-08T07:31:32;28.00;99.90
47921;DHT22;33686;48.770;9.186;2023-09-08T07:33:59;27.80;99.90
47921;DHT22;33686;48.770;9.186;2023-09-08T07:36:25;28.10;99.90
47921;DHT22;33686;48.770;9.186;2023-09-08T07:38:52;27.80;99.90
47921;DHT22;33686;48.770;9.186;2023-09-08T07:41:17;28.00;99.90
47921;DHT22;33686;48.770;9.186;2023-09-08T07:43:43;28.20;99.90
47921;DHT22;33686;48.770;9.186;2023-09-08T07:46:12;28.60;99.90
47921;DHT22;33686;48.770;9.186;2023-09-08T07:48:37;28.60;99.90
47921;DHT22;33686;48.770;9.186;2023-09-08T07:51:03;28.60;99.90
47921;DHT22;33686;48.770;9.186;2023-09-08T07:53:28;29.90;99.90
47921;DHT22;33686;48.770;9.186;2023-09-08T07:55:54;29.50;99.90
47921;DHT22;33686;48.770;9.186;2023-09-08T07:58:19;28.50;99.90
47921;DHT22;33686;48.770;9.186;2023-09-08T08:00:45;27.70;99.90
47921;DHT22;33686;48.770;9.186;2023-09-08T08:03:10;28.70;99.90
47921;DHT22;33686;48.770;9.186;2023-09-08T08:05:36;28.80;99.90
47921;DHT22;33686;48.770;9.186;2023-09-08T08:08:02;29.00;99.90
47921;DHT22;33686;48.770;9.186;2023-09-08T08:10:27;29.10;99.90
47921;DHT22;33686;48.770;9.186;2023-09-08T08:12:53;29.40;99.90
47921;DHT22;33686;48.770;9.186;2023-09-08T08:15:19;28.90;99.90
47921;DHT22;33686;48.770;9.186;2023-09-08T08:17:44;29.40;99.90
47921;DHT22;33686;48.770;9.186;2023-09-08T08:20:10;29.50;99.90
47921;DHT22;33686;48.770;9.186;2023-09-08T08:22:42;29.90;99.90
47921;DHT22;33686;48.770;9.186;2023-09-08T08:25:08;29.60;99.90
47921;DHT22;33686;48.770;9.186;2023-09-08T08:27:34;29.70;99.90
47921;DHT22;33686;48.770;9.186;2023-09-08T08:29:59;29.60;99.90
47921;DHT22;33686;48.770;9.186;2023-09-08T08:32:26;29.50;99.90
47921;DHT22;33686;48.770;9.186;2023-09-08T08:34:52;30.80;99.90
47921;DHT22;33686;48.770;9.186;2023-09-08T08:37:17;30.70;99.90
47921;DHT22;33686;48.770;9.186;2023-09-08T08:39:43;29.60;99.90
47921;DHT22;33686;48.770;9.186;2023-09-08T08:42:09;30.30;99.90
47921;DHT22;33686;48.770;9.186;2023-09-08T08:44:34;30.00;99.90
47921;DHT22;33686;48.770;9.186;2023-09-08T08:47:01;30.30;99.90
47921;DHT22;33686;48.770;9.186;2023-09-08T08:49:27;31.40;99.90
47921;DHT22;33686;48.770;9.186;2023-09-08T08:51:53;31.60;99.60
47921;DHT22;33686;48.770;9.186;2023-09-08T08:54:19;31.50;99.30
47921;DHT22;33686;48.770;9.186;2023-09-08T08:56:45;30.80;99.80
47921;DHT22;33686;48.770;9.186;2023-09-08T08:59:11;30.30;99.90
47921;DHT22;33686;48.770;9.186;2023-09-08T09:01:36;30.80;99.90
47921;DHT22;33686;48.770;9.186;2023-09-08T09:04:04;30.30;99.90
47921;DHT22;33686;48.770;9.186;2023-09-08T09:06:30;29.80;99.90
47921;DHT22;33686;48.770;9.186;2023-09-08T09:08:56;29.30;99.90
47921;DHT22;33686;48.770;9.186;2023-09-08T09:11:22;29.40;99.90
47921;DHT22;33686;48.770;9.186;2023-09-08T09:13:47;30.20;99.90
47921;DHT22;33686;48.770;9.186;2023-09-08T09:16:13;29.90;99.90
47921;DHT22;33686;48.770;9.186;2023-09-08T09:18:53;30.20;99.90
47921;DHT22;33686;48.770;9.186;2023-09-08T09:21:19;29.80;99.90
47921;DHT22;33686;48.770;9.186;2023-09-08T09:23:45;30.20;99.90
47921;DHT22;33686;48.770;9.186;2023-09-08T09:26:10;30.80;99.90
47921;DHT22;33686;48.770;9.186;2023-09-08T09:28:48;30.90;99.90
47921;DHT22;33686;48.770;9.186;2023-09-08T09:31:14;30.40;99.90
47921;DHT22;33686;48.770;9.186;2023-09-08T09:33:39;29.30;99.90
47921;DHT22;33686;48.770;9.186;2023-09-08T09:36:05;29.60;99.90
47921;DHT22;33686;48.770;9.186;2023-09-08T09:38:31;29.90;99.90
47921;DHT22;33686;48.770;9.186;2023-09-08T09:40:56;29.70;99.90
47921;DHT22;33686;48.770;9.186;2023-09-08T09:43:23;29.30;99.90
47921;DHT22;33686;48.770;9.186;2023-09-08T09:45:49;28.70;99.90
47921;DHT22;33686;48.770;9.186;2023-09-08T09:48:14;28.50;99.90
47921;DHT22;33686;48.770;9.186;2023-09-08T09:50:41;27.90;99.90
47921;DHT22;33686;48.770;9.186;2023-09-08T09:53:10;27.60;99.90
47921;DHT22;33686;48.770;9.186;2023-09-08T09:55:37;27.30;99.90
47921;DHT22;33686;48.770;9.186;2023-09-08T09:58:03;27.20;99.90
47921;DHT22;33686;48.770;9.186;2023-09-08T10:00:29;26.80;99.90
47921;DHT22;33686;48.770;9.186;2023-09-08T10:02:55;27.00;99.90
47921;DHT22;33686;48.770;9.186;2023-09-08T10:05:22;27.20;99.90
47921;DHT22;33686;48.770;9.186;2023-09-08T10:07:48;27.20;99.90
47921;DHT22;33686;48.770;9.186;2023-09-08T10:10:15;27.00;99.90
47921;DHT22;33686;48.770;9.186;2023-09-08T10:12:43;26.70;99.90
47921;DHT22;33686;48.770;9.186;2023-09-08T10:15:08;26.70;99.90
47921;DHT22;33686;48.770;9.186;2023-09-08T10:17:35;26.60;99.90
47921;DHT22;33686;48.770;9.186;2023-09-08T10:20:01;26.30;99.90
47921;DHT22;33686;48.770;9.186;2023-09-08T10:22:34;26.30;99.90
47921;DHT22;33686;48.770;9.186;2023-09-08T10:25:01;26.30;99.90
47921;DHT22;33686;48.770;9.186;2023-09-08T10:27:29;26.30;99.90
47921;DHT22;33686;48.770;9.186;2023-09-08T10:29:54;26.00;99.90
47921;DHT22;33686;48.770;9.186;2023-09-08T10:32:20;26.00;99.90
47921;DHT22;33686;48.770;9.186;2023-09-08T10:34:47;26.10;99.90
47921;DHT22;33686;48.770;9.186;2023-09-08T10:39:45;26.40;99.90
47921;DHT22;33686;48.770;9.186;2023-09-08T10:47:26;26.10;99.90
47921;DHT22;33686;48.770;9.186;2023-09-08T10:49:52;26.30;99.90
47921;DHT22;33686;48.770;9.186;2023-09-08T10:52:20;26.30;99.90
47921;DHT22;33686;48.770;9.186;2023-09-08T10:54:50;26.30;99.90
47921;DHT22;33686;48.770;9.186;2023-09-08T10:57:16;26.40;99.90
47921;DHT22;33686;48.770;9.186;2023-09-08T10:59:58;26.50;99.90
47921;DHT22;33686;48.770;9.186;2023-09-08T11:02:34;26.40;99.90
47921;DHT22;33686;48.770;9.186;2023-09-08T11:05:01;26.40;99.90
47921;DHT22;33686;48.770;9.186;2023-09-08T11:07:27;26.40;99.90
47921;DHT22;33686;48.770;9.186;2023-09-08T11:09:52;26.30;99.90
47921;DHT22;33686;48.770;9.186;2023-09-08T11:12:18;26.40;99.90
47921;DHT22;33686;48.770;9.186;2023-09-08T11:14:43;26.60;99.90
47921;DHT22;33686;48.770;9.186;2023-09-08T11:17:09;26.70;99.90
47921;DHT22;33686;48.770;9.186;2023-09-08T11:19:50;26.80;99.90
47921;DHT22;33686;48.770;9.186;2023-09-08T11:22:15;26.80;99.90
47921;DHT22;33686;48.770;9.186;2023-09-08T11:24:42;26.80;99.90
47921;DHT22;33686;48.770;9.186;2023-09-08T11:27:07;26.70;99.90
47921;DHT22;33686;48.770;9.186;2023-09-08T11:29:33;26.70;99.90
47921;DHT22;33686;48.770;9.186;2023-09-08T11:31:59;26.70;99.90
47921;DHT22;33686;48.770;9.186;2023-09-08T11:34:25;26.80;99.90
47921;DHT22;33686;48.770;9.186;2023-09-08T11:36:51;26.60;99.90
47921;DHT22;33686;48.770;9.186;2023-09-08T11:39:18;26.70;99.90
47921;DHT22;33686;48.770;9.186;2023-09-08T11:41:43;26.90;99.90
47921;DHT22;33686;48.770;9.186;2023-09-08T11:44:09;27.10;99.90
47921;DHT22;33686;48.770;9.186;2023-09-08T11:46:34;27.10;99.90
47921;DHT22;33686;48.770;9.186;2023-09-08T11:49:00;27.20;99.90
47921;DHT22;33686;48.770;9.186;2023-09-08T11:51:26;27.40;99.90
47921;DHT22;33686;48.770;9.186;2023-09-08T11:53:51;27.20;99.90
47921;DHT22;33686;48.770;9.186;2023-09-08T11:56:17;27.30;99.90
47921;DHT22;33686;48.770;9.186;2023-09-08T11:58:43;27.20;99.90
47921;DHT22;33686;48.770;9.186;2023-09-08T12:01:09;27.20;99.90
47921;DHT22;33686;48.770;9.186;2023-09-08T12:03:35;27.40;99.90
47921;DHT22;33686;48.770;9.186;2023-09-08T12:06:15;27.40;99.90
47921;DHT22;33686;48.770;9.186;2023-09-08T12:08:41;27.40;99.90
47921;DHT22;33686;48.770;9.186;2023-09-08T12:11:07;27.20;99.90
47921;DHT22;33686;48.770;9.186;2023-09-08T12:13:33;27.40;99.90
47921;DHT22;33686;48.770;9.186;2023-09-08T12:15:59;27.50;99.90
47921;DHT22;33686;48.770;9.186;2023-09-08T12:18:37;27.40;99.90
47921;DHT22;33686;48.770;9.186;2023-09-08T12:21:03;27.30;99.90
47921;DHT22;33686;48.770;9.186;2023-09-08T12:23:32;27.30;99.90
47921;DHT22;33686;48.770;9.186;2023-09-08T12:25:58;27.20;99.90
47921;DHT22;33686;48.770;9.186;2023-09-08T12:28:24;27.30;99.90
47921;DHT22;33686;48.770;9.186;2023-09-08T12:30:55;27.40;99.90
47921;DHT22;33686;48.770;9.186;2023-09-08T12:33:21;27.40;99.90
47921;DHT22;33686;48.770;9.186;2023-09-08T12:35:47;27.40;99.90
47921;DHT22;33686;48.770;9.186;2023-09-08T12:38:13;27.40;99.90
47921;DHT22;33686;48.770;9.186;2023-09-08T12:40:39;27.50;99.90
47921;DHT22;33686;48.770;9.186;2023-09-08T12:43:05;27.40;99.90
47921;DHT22;33686;48.770;9.186;2023-09-08T12:45:31;27.50;99.90
47921;DHT22;33686;48.770;9.186;2023-09-08T12:48:00;27.50;99.90
47921;DHT22;33686;48.770;9.186;2023-09-08T12:50:30;27.80;99.90
47921;DHT22;33686;48.770;9.186;2023-09-08T12:52:55;28.00;99.90
47921;DHT22;33686;48.770;9.186;2023-09-08T12:55:22;28.10;99.90
47921;DHT22;33686;48.770;9.186;2023-09-08T12:57:47;28.10;99.90
47921;DHT22;33686;48.770;9.186;2023-09-08T13:00:15;27.90;99.90
47921;DHT22;33686;48.770;9.186;2023-09-08T13:02:40;27.80;99.90
47921;DHT22;33686;48.770;9.186;2023-09-08T13:05:07;27.60;99.90
47921;DHT22;33686;48.770;9.186;2023-09-08T13:07:33;27.90;99.90
47921;DHT22;33686;48.770;9.186;2023-09-08T13:09:59;28.00;99.90
47921;DHT22;33686;48.770;9.186;2023-09-08T13:12:24;28.10;99.90
47921;DHT22;33686;48.770;9.186;2023-09-08T13:14:50;28.10;99.90
47921;DHT22;33686;48.770;9.186;2023-09-08T13:17:15;28.10;99.90
47921;DHT22;33686;48.770;9.186;2023-09-08T13:19:41;27.90;99.90
47921;DHT22;33686;48.770;9.186;2023-09-08T13:22:07;28.00;99.90
47921;DHT22;33686;48.770;9.186;2023-09-08T13:24:33;27.90;99.90
47921;DHT22;33686;48.770;9.186;2023-09-08T13:27:01;28.00;99.90
47921;DHT22;33686;48.770;9.186;2023-09-08T13:29:27;27.90;99.90
47921;DHT22;33686;48.770;9.186;2023-09-08T13:31:53;27.90;99.90
47921;DHT22;33686;48.770;9.186;2023-09-08T13:34:18;28.10;99.90
47921;DHT22;33686;48.770;9.186;2023-09-08T13:36:44;28.00;99.90
47921;DHT22;33686;48.770;9.186;2023-09-08T13:39:09;28.10;99.90
47921;DHT22;33686;48.770;9.186;2023-09-08T13:41:45;28.10;99.90
47921;DHT22;33686;48.770;9.186;2023-09-08T13:44:10;28.20;99.90
47921;DHT22;33686;48.770;9.186;2023-09-08T13:46:36;28.00;99.90
47921;DHT22;33686;48.770;9.186;2023-09-08T13:49:01;28.00;99.90
47921;DHT22;33686;48.770;9.186;2023-09-08T13:51:27;28.00;99.90
47921;DHT22;33686;48.770;9.186;2023-09-08T13:53:53;27.90;99.90
47921;DHT22;33686;48.770;9.186;2023-09-08T13:56:18;27.90;99.90
47921;DHT22;33686;48.770;9.186;2023-09-08T13:58:44;28.00;99.90
47921;DHT22;33686;48.770;9.186;2023-09-08T14:01:10;27.90;99.90
47921;DHT22;33686;48.770;9.186;2023-09-08T14:03:36;27.90;99.90
47921;DHT22;33686;48.770;9.186;2023-09-08T14:06:02;28.00;99.90
47921;DHT22;33686;48.770;9.186;2023-09-08T14:08:27;28.10;99.90
47921;DHT22;33686;48.770;9.186;2023-09-08T14:10:53;28.20;99.90
47921;DHT22;33686;48.770;9.186;2023-09-08T14:13:19;28.20;99.90
47921;DHT22;33686;48.770;9.186;2023-09-08T14:15:44;28.30;99.90
47921;DHT22;33686;48.770;9.186;2023-09-08T14:18:10;28.40;99.90
47921;DHT22;33686;48.770;9.186;2023-09-08T14:20:36;28.30;99.90
47921;DHT22;33686;48.770;9.186;2023-09-08T14:23:01;28.40;99.90
47921;DHT22;33686;48.770;9.186;2023-09-08T14:25:27;28.50;99.90
47921;DHT22;33686;48.770;9.186;2023-09-08T14:27:53;28.40;99.90
47921;DHT22;33686;48.770;9.186;2023-09-08T14:30:18;28.40;99.90
47921;DHT22;33686;48.770;9.186;2023-09-08T14:32:44;28.40;99.90
47921;DHT22;33686;48.770;9.186;2023-09-08T14:35:09;28.40;99.90
47921;DHT22;33686;48.770;9.186;2023-09-08T14:37:35;28.40;99.90
47921;DHT22;33686;48.770;9.186;2023-09-08T14:40:00;28.50;99.90
47921;DHT22;33686;48.770;9.186;2023-09-08T14:42:26;28.50;99.90
47921;DHT22;33686;48.770;9.186;2023-09-08T14:44:52;28.40;99.90
47921;DHT22;33686;48.770;9.186;2023-09-08T14:47:17;28.40;99.90
47921;DHT22;33686;48.770;9.186;2023-09-08T14:49:43;28.30;99.90
47921;DHT22;33686;48.770;9.186;2023-09-08T14:52:09;28.40;99.90
47921;DHT22;33686;48.770;9.186;2023-09-08T14:54:35;28.40;99.90
47921;DHT22;33686;48.770;9.186;2023-09-08T14:57:00;28.20;99.90
47921;DHT22;33686;48.770;9.186;2023-09-08T14:59:26;28.30;99.90
47921;DHT22;33686;48.770;9.186;2023-09-08T15:01:51;28.30;99.90
47921;DHT22;33686;48.770;9.186;2023-09-08T15:04:19;28.40;99.90
47921;DHT22;33686;48.770;9.186;2023-09-08T15:06:44;28.30;99.90
47921;DHT22;33686;48.770;9.186;2023-09-08T15:09:10;28.30;99.90
47921;DHT22;33686;48.770;9.186;2023-09-08T15:11:36;28.40;99.90
47921;DHT22;33686;48.770;9.186;2023-09-08T15:14:03;28.30;99.90
47921;DHT22;33686;48.770;9.186;2023-09-08T15:16:29;28.30;99.90
47921;DHT22;33686;48.770;9.186;2023-09-08T15:18:54;28.20;99.90
47921;DHT22;33686;48.770;9.186;2023-09-08T15:21:20;28.20;99.90
47921;DHT22;33686;48.770;9.186;2023-09-08T15:23:51;28.20;99.50
47921;DHT22;33686;48.770;9.186;2023-09-08T15:26:16;28.10;99.90
47921;DHT22;33686;48.770;9.186;2023-09-08T15:28:42;28.10;99.80
47921;DHT22;33686;48.770;9.186;2023-09-08T15:31:08;28.10;99.70